createdAt,value
2023-11-28T00:00:06.103Z,6.15
2023-11-28T00:02:34.721Z,6.43
2023-11-28T00:05:03.438Z,6.90
2023-11-28T00:07:34.476Z,6.70
2023-11-28T00:10:03.984Z,6.82
2023-11-28T00:12:33.958Z,7.20
2023-11-28T00:15:02.401Z,6.65
2023-11-28T00:17:31.511Z,6.55
2023-11-28T00:20:00.108Z,6.00
2023-11-28T00:22:28.777Z,6.40
2023-11-28T00:24:57.157Z,6.70
2023-11-28T00:27:25.638Z,6.47
2023-11-28T00:29:55.630Z,6.80
2023-11-28T00:32:24.059Z,6.65
2023-11-28T00:34:54.884Z,7.03
2023-11-28T00:37:24.110Z,7.35
2023-11-28T00:39:52.503Z,6.97
2023-11-28T00:42:20.839Z,6.45
2023-11-28T00:44:52.323Z,6.60
2023-11-28T00:47:22.768Z,7.00
2023-11-28T00:49:51.105Z,7.25
2023-11-28T00:52:21.832Z,7.32
2023-11-28T00:54:50.488Z,7.28
2023-11-28T00:57:19.912Z,7.07
2023-11-28T00:59:49.260Z,7.22
2023-11-28T01:02:17.845Z,7.68
2023-11-28T01:04:47.693Z,6.68
2023-11-28T01:07:16.564Z,7.70
2023-11-28T01:09:44.905Z,7.65
2023-11-28T01:12:13.388Z,7.40
2023-11-28T01:14:41.641Z,7.53
2023-11-28T01:17:09.972Z,7.57
2023-11-28T01:19:39.736Z,7.63
2023-11-28T01:22:10.219Z,6.38
2023-11-28T01:24:38.800Z,7.40
2023-11-28T01:27:07.341Z,7.13
2023-11-28T01:29:36.432Z,6.53
2023-11-28T01:32:05.544Z,6.85
2023-11-28T01:34:34.278Z,6.75
2023-11-28T01:37:02.781Z,6.88
2023-11-28T01:39:32.658Z,6.55
2023-11-28T01:42:03.467Z,6.38
2023-11-28T01:44:32.059Z,7.20
2023-11-28T01:47:00.977Z,6.70
2023-11-28T01:49:35.846Z,6.88
2023-11-28T01:52:04.810Z,6.75
2023-11-28T01:54:34.823Z,7.00
2023-11-28T01:57:03.930Z,7.28
2023-11-28T01:59:33.831Z,6.88
2023-11-28T02:02:02.739Z,6.60
2023-11-28T02:04:31.248Z,7.90
2023-11-28T02:06:59.924Z,7.40
2023-11-28T02:09:31.789Z,7.80
2023-11-28T02:12:01.670Z,7.35
2023-11-28T02:14:30.127Z,7.63
2023-11-28T02:16:58.677Z,7.38
2023-11-28T02:19:27.081Z,7.60
2023-11-28T02:21:55.681Z,7.30
2023-11-28T02:24:26.894Z,7.28
2023-11-28T02:26:56.500Z,7.70
2023-11-28T02:29:24.757Z,7.40
2023-11-28T02:31:53.204Z,6.63
2023-11-28T02:34:21.544Z,6.38
2023-11-28T02:36:50.486Z,5.80
2023-11-28T02:39:19.038Z,6.10
2023-11-28T02:41:47.345Z,5.53
2023-11-28T02:44:17.036Z,5.70
2023-11-28T02:46:45.628Z,4.80
2023-11-28T02:49:14.132Z,5.13
2023-11-28T02:51:42.476Z,5.35
2023-11-28T02:54:10.819Z,4.72
2023-11-28T02:56:39.482Z,4.90
2023-11-28T02:59:08.138Z,4.60
2023-11-28T03:01:38.064Z,4.72
2023-11-28T03:04:06.758Z,4.47
2023-11-28T03:06:35.155Z,5.57
2023-11-28T03:09:03.530Z,4.97
2023-11-28T03:11:31.848Z,4.78
2023-11-28T03:14:00.153Z,5.00
2023-11-28T03:16:28.726Z,4.97
2023-11-28T03:18:58.829Z,4.80
2023-11-28T03:21:27.147Z,5.10
2023-11-28T03:23:55.592Z,4.68
2023-11-28T03:26:24.456Z,5.28
2023-11-28T03:28:52.905Z,5.57
2023-11-28T03:31:20.403Z,5.20
2023-11-28T03:33:48.912Z,5.35
2023-11-28T03:36:19.268Z,5.65
2023-11-28T03:38:49.278Z,6.35
2023-11-28T03:41:17.589Z,6.68
2023-11-28T03:43:46.053Z,6.28
2023-11-28T03:46:14.544Z,6.30
2023-11-28T03:48:42.965Z,6.78
2023-11-28T03:51:11.265Z,7.20
2023-11-28T03:53:41.183Z,7.22
2023-11-28T03:56:10.735Z,6.68
2023-11-28T03:58:39.198Z,6.20
2023-11-28T04:01:07.933Z,7.05
2023-11-28T04:03:36.449Z,7.05
2023-11-28T04:06:04.932Z,7.00
2023-11-28T04:08:33.443Z,7.35
2023-11-28T04:11:03.558Z,7.00
2023-11-28T04:13:31.838Z,7.05
2023-11-28T04:16:00.670Z,7.70
2023-11-28T04:18:32.320Z,6.95
2023-11-28T04:21:01.145Z,6.13
2023-11-28T04:23:29.385Z,5.63
2023-11-28T04:25:57.869Z,6.13
2023-11-28T04:28:27.790Z,5.80
2023-11-28T04:30:56.344Z,5.72
2023-11-28T04:33:24.605Z,5.30
2023-11-28T04:35:53.118Z,5.20
2023-11-28T04:38:21.410Z,5.90
2023-11-28T04:40:50.150Z,5.90
2023-11-28T04:43:18.382Z,5.93
2023-11-28T04:45:48.272Z,5.57
2023-11-28T04:48:16.639Z,6.47
2023-11-28T04:50:45.200Z,6.57
2023-11-28T04:53:13.836Z,6.13
2023-11-28T04:55:45.272Z,6.88
2023-11-28T04:58:13.622Z,6.60
2023-11-28T05:00:42.037Z,6.57
2023-11-28T05:03:12.489Z,6.60
2023-11-28T05:05:41.104Z,5.72
2023-11-28T05:08:09.515Z,5.80
2023-11-28T05:10:38.006Z,5.82
2023-11-28T05:13:06.489Z,6.70
2023-11-28T05:15:34.901Z,6.03
2023-11-28T05:18:03.303Z,7.28
2023-11-28T05:20:33.350Z,6.93
2023-11-28T05:23:04.211Z,7.30
2023-11-28T05:25:33.366Z,7.47
2023-11-28T05:28:04.771Z,7.40
2023-11-28T05:30:33.425Z,6.78
2023-11-28T05:33:03.049Z,6.07
2023-11-28T05:35:33.128Z,6.70
2023-11-28T05:38:01.712Z,6.78
2023-11-28T05:40:30.404Z,7.10
2023-11-28T05:43:00.490Z,6.90
2023-11-28T05:45:35.685Z,7.07
2023-11-28T05:48:04.697Z,7.18
2023-11-28T05:50:34.275Z,7.00
2023-11-28T05:53:02.641Z,5.93
2023-11-28T05:55:30.933Z,6.15
2023-11-28T05:57:59.149Z,6.15
2023-11-28T06:00:28.526Z,6.10
2023-11-28T06:02:56.979Z,5.65
2023-11-28T06:05:25.304Z,5.35
2023-11-28T06:07:54.891Z,5.53
2023-11-28T06:10:23.168Z,5.32
2023-11-28T06:12:51.733Z,5.72
2023-11-28T06:15:19.990Z,5.25
2023-11-28T06:17:48.207Z,5.43
2023-11-28T06:20:17.261Z,5.13
2023-11-28T06:22:46.486Z,4.97
2023-11-28T06:25:16.749Z,5.28
2023-11-28T06:27:44.911Z,5.05
2023-11-28T06:30:14.091Z,5.05
2023-11-28T06:32:42.300Z,5.82
2023-11-28T06:35:12.183Z,5.20
2023-11-28T06:37:40.606Z,5.47
2023-11-28T06:40:09.504Z,5.05
2023-11-28T06:42:39.592Z,4.40
2023-11-28T06:45:08.479Z,4.50
2023-11-28T06:47:37.235Z,4.95
2023-11-28T06:50:07.007Z,5.72
2023-11-28T06:52:37.878Z,5.13
2023-11-28T06:55:07.969Z,4.55
2023-11-28T06:57:36.319Z,5.15
2023-11-28T07:00:08.460Z,5.50
2023-11-28T07:02:37.681Z,6.13
2023-11-28T07:05:09.102Z,5.43
2023-11-28T07:07:37.493Z,5.70
2023-11-28T07:10:07.991Z,6.10
2023-11-28T07:12:36.755Z,6.50
2023-11-28T07:15:07.068Z,6.30
2023-11-28T07:17:35.374Z,6.30
2023-11-28T07:20:05.851Z,6.83
2023-11-28T07:22:34.152Z,6.75
2023-11-28T07:25:02.577Z,7.17
2023-11-28T07:27:30.993Z,6.57
2023-11-28T07:29:59.951Z,6.57
2023-11-28T07:32:29.652Z,6.43
2023-11-28T07:34:58.026Z,5.97
2023-11-28T07:37:27.038Z,5.70
2023-11-28T07:39:55.545Z,6.10
2023-11-28T07:42:23.798Z,5.80
2023-11-28T07:44:52.010Z,5.97
2023-11-28T07:47:20.352Z,5.83
2023-11-28T07:49:50.125Z,5.10
2023-11-28T07:52:19.121Z,4.80
2023-11-28T07:54:47.266Z,4.00
2023-11-28T07:57:15.621Z,3.73
2023-11-28T07:59:48.041Z,2.43
2023-11-28T08:02:16.638Z,2.90
2023-11-28T08:04:44.892Z,2.80
2023-11-28T08:07:14.668Z,2.73
2023-11-28T08:09:42.886Z,2.77
2023-11-28T08:12:11.100Z,2.60
2023-11-28T08:14:39.166Z,3.03
2023-11-28T08:17:07.527Z,2.80
2023-11-28T08:19:35.782Z,2.83
2023-11-28T08:22:04.153Z,2.77
2023-11-28T08:24:33.769Z,3.03
2023-11-28T08:27:01.906Z,3.10
2023-11-28T08:29:32.022Z,2.60
2023-11-28T08:32:00.990Z,2.67
2023-11-28T08:34:29.254Z,3.10
2023-11-28T08:36:57.400Z,2.90
2023-11-28T08:39:27.196Z,2.60
2023-11-28T08:41:57.216Z,2.87
2023-11-28T08:44:25.391Z,2.90
2023-11-28T08:46:53.793Z,2.63
2023-11-28T08:49:23.815Z,2.63
2023-11-28T08:51:52.143Z,2.90
2023-11-28T08:54:20.304Z,2.30
2023-11-28T08:56:48.653Z,2.53
2023-11-28T08:59:18.146Z,2.50
2023-11-28T09:01:46.562Z,2.97
2023-11-28T09:04:14.840Z,2.50
2023-11-28T09:06:43.319Z,2.60
2023-11-28T09:09:14.931Z,2.73
2023-11-28T09:11:43.247Z,2.90
2023-11-28T09:14:13.896Z,3.00
2023-11-28T09:16:47.815Z,3.00
2023-11-28T09:19:15.995Z,2.93
2023-11-28T09:21:44.209Z,3.13
2023-11-28T09:24:12.549Z,2.90
2023-11-28T09:26:40.823Z,2.67
2023-11-28T09:29:09.025Z,3.00
2023-11-28T09:31:38.135Z,3.30
2023-11-28T09:34:07.759Z,2.57
2023-11-28T09:36:36.119Z,3.30
2023-11-28T09:39:08.747Z,3.00
2023-11-28T09:41:43.157Z,2.70
2023-11-28T09:44:17.627Z,3.00
2023-11-28T09:46:50.122Z,3.43
2023-11-28T09:49:20.901Z,2.97
2023-11-28T09:51:51.074Z,2.97
2023-11-28T09:54:20.900Z,3.03
2023-11-28T09:56:49.543Z,2.60
2023-11-28T09:59:18.098Z,3.00
2023-11-28T10:01:47.022Z,2.57
2023-11-28T10:04:15.408Z,2.80
2023-11-28T10:06:45.882Z,2.90
2023-11-28T10:09:14.647Z,2.93
2023-11-28T10:11:44.842Z,2.87
2023-11-28T10:14:13.698Z,2.50
2023-11-28T10:16:47.802Z,2.60
2023-11-28T10:19:16.898Z,2.40
2023-11-28T10:21:47.395Z,2.37
2023-11-28T10:24:15.629Z,2.80
2023-11-28T10:26:43.783Z,2.60
2023-11-28T10:29:13.151Z,2.40
2023-11-28T10:31:42.395Z,2.63
2023-11-28T10:34:10.860Z,2.42
2023-11-28T10:36:45.446Z,2.40
2023-11-28T10:39:20.479Z,2.70
2023-11-28T10:41:49.953Z,2.00
2023-11-28T10:44:18.457Z,2.43
2023-11-28T10:46:46.824Z,2.57
2023-11-28T10:49:15.318Z,2.40
2023-11-28T10:51:43.630Z,2.50
2023-11-28T10:54:12.667Z,2.22
2023-11-28T10:56:51.946Z,2.40
2023-11-28T10:59:24.414Z,2.20
2023-11-28T11:01:53.330Z,2.10
2023-11-28T11:04:21.868Z,1.70
2023-11-28T11:06:50.000Z,2.10
2023-11-28T11:09:19.518Z,2.00
2023-11-28T11:11:49.831Z,2.20
2023-11-28T11:14:26.116Z,2.10
2023-11-28T11:16:59.353Z,2.50
2023-11-28T11:19:28.135Z,1.90
2023-11-28T11:22:02.793Z,1.92
2023-11-28T11:24:33.109Z,2.00
2023-11-28T11:27:03.754Z,1.95
2023-11-28T11:29:40.432Z,2.03
2023-11-28T11:32:12.818Z,1.98
2023-11-28T11:34:43.423Z,2.22
2023-11-28T11:37:14.209Z,2.08
2023-11-28T11:39:43.616Z,2.20
2023-11-28T11:42:15.991Z,1.83
2023-11-28T11:44:45.411Z,2.00
2023-11-28T11:47:18.814Z,2.05
2023-11-28T11:49:50.152Z,1.90
2023-11-28T11:52:18.978Z,1.85
2023-11-28T11:54:48.409Z,2.15
2023-11-28T11:57:21.945Z,2.33
2023-11-28T11:59:50.781Z,2.30
2023-11-28T12:02:19.526Z,1.95
2023-11-28T12:04:48.087Z,1.80
2023-11-28T12:07:18.216Z,2.22
2023-11-28T12:09:47.477Z,2.85
2023-11-28T12:12:17.278Z,2.30
2023-11-28T12:14:45.595Z,2.00
2023-11-28T12:17:13.895Z,2.00
2023-11-28T12:19:41.980Z,2.00
2023-11-28T12:22:11.550Z,1.77
2023-11-28T12:24:39.835Z,1.90
2023-11-28T12:27:08.401Z,2.10
2023-11-28T12:29:38.861Z,2.00
2023-11-28T12:32:08.163Z,1.95
2023-11-28T12:34:40.692Z,1.80
2023-11-28T12:37:10.158Z,2.08
2023-11-28T12:39:40.812Z,1.67
2023-11-28T12:42:08.979Z,2.03
2023-11-28T12:44:39.355Z,2.13
2023-11-28T12:47:07.998Z,2.25
2023-11-28T12:49:38.690Z,1.98
2023-11-28T12:52:07.050Z,2.00
2023-11-28T12:54:36.211Z,2.33
2023-11-28T12:57:06.601Z,2.28
2023-11-28T12:59:34.816Z,2.10
2023-11-28T13:02:05.038Z,2.20
2023-11-28T13:04:33.531Z,2.28
2023-11-28T13:07:13.592Z,2.13
2023-11-28T13:09:49.984Z,2.00
2023-11-28T13:12:19.122Z,1.95
2023-11-28T13:14:47.546Z,3.90
2023-11-28T13:17:17.245Z,2.85
2023-11-28T13:19:45.743Z,3.03
2023-11-28T13:22:15.430Z,2.33
2023-11-28T13:24:43.707Z,2.33
2023-11-28T13:27:11.763Z,2.33
2023-11-28T13:29:40.589Z,1.92
2023-11-28T13:32:09.079Z,2.10
2023-11-28T13:34:42.664Z,2.42
2023-11-28T13:37:11.336Z,2.17
2023-11-28T13:39:42.053Z,3.05
2023-11-28T13:42:10.272Z,2.08
2023-11-28T13:44:38.525Z,2.15
2023-11-28T13:47:08.356Z,3.17
2023-11-28T13:49:38.420Z,2.72
2023-11-28T13:52:06.993Z,5.78
2023-11-28T13:54:36.534Z,2.30
2023-11-28T13:57:04.942Z,1.70
2023-11-28T13:59:33.786Z,1.90
2023-11-28T14:02:03.412Z,1.45
2023-11-28T14:04:31.814Z,1.80
2023-11-28T14:07:01.465Z,1.77
2023-11-28T14:09:29.852Z,1.80
2023-11-28T14:11:58.374Z,1.80
2023-11-28T14:14:27.026Z,1.90
2023-11-28T14:16:55.559Z,1.80
2023-11-28T14:19:26.551Z,7.88
2023-11-28T14:21:54.733Z,2.60
2023-11-28T14:24:24.355Z,2.00
2023-11-28T14:26:52.744Z,1.95
2023-11-28T14:29:21.160Z,1.73
2023-11-28T14:31:49.380Z,1.90
2023-11-28T14:34:17.773Z,2.00
2023-11-28T14:36:46.186Z,2.05
2023-11-28T14:39:16.410Z,1.77
2023-11-28T14:41:46.046Z,1.83
2023-11-28T14:44:14.263Z,1.80
2023-11-28T14:46:42.467Z,1.75
2023-11-28T14:49:10.997Z,1.83
2023-11-28T14:51:39.418Z,2.00
2023-11-28T14:54:08.140Z,2.13
2023-11-28T14:56:38.133Z,2.22
2023-11-28T14:59:09.919Z,2.22
2023-11-28T15:01:39.766Z,2.33
2023-11-28T15:04:08.662Z,2.47
2023-11-28T15:06:37.594Z,2.40
2023-11-28T15:09:07.420Z,2.63
2023-11-28T15:11:35.671Z,2.83
2023-11-28T15:14:04.036Z,2.50
2023-11-28T15:16:34.811Z,2.10
2023-11-28T15:19:04.206Z,2.30
2023-11-28T15:21:36.982Z,2.83
2023-11-28T15:24:05.823Z,2.50
2023-11-28T15:26:34.156Z,2.60
2023-11-28T15:29:02.668Z,3.92
2023-11-28T15:31:31.483Z,4.88
2023-11-28T15:34:01.635Z,3.70
2023-11-28T15:36:30.785Z,3.50
2023-11-28T15:38:59.145Z,3.72
2023-11-28T15:41:27.490Z,3.50
2023-11-28T15:43:55.637Z,3.13
2023-11-28T15:46:23.861Z,3.63
2023-11-28T15:48:52.631Z,2.88
2023-11-28T15:51:34.658Z,3.05
2023-11-28T15:54:09.267Z,3.85
2023-11-28T15:56:37.530Z,3.53
2023-11-28T15:59:05.712Z,3.70
2023-11-28T16:01:34.304Z,3.40
2023-11-28T16:04:02.548Z,3.40
2023-11-28T16:06:32.394Z,3.70
2023-11-28T16:09:00.609Z,3.50
2023-11-28T16:11:28.952Z,3.80
2023-11-28T16:13:57.081Z,4.50
2023-11-28T16:16:25.307Z,5.03
2023-11-28T16:18:53.994Z,5.70
2023-11-28T16:21:22.696Z,5.68
2023-11-28T16:23:52.361Z,4.23
2023-11-28T16:26:22.574Z,4.75
2023-11-28T16:28:51.411Z,5.20
2023-11-28T16:31:20.180Z,5.10
2023-11-28T16:33:49.373Z,4.90
2023-11-28T16:36:17.565Z,6.03
2023-11-28T16:38:45.785Z,5.93
2023-11-28T16:41:17.229Z,6.07
2023-11-28T16:43:46.108Z,5.73
2023-11-28T16:46:14.432Z,5.23
2023-11-28T16:48:42.837Z,5.30
2023-11-28T16:51:14.675Z,5.30
2023-11-28T16:53:43.233Z,5.00
2023-11-28T16:56:12.095Z,5.57
2023-11-28T16:58:41.970Z,5.07
2023-11-28T17:01:10.331Z,5.83
2023-11-28T17:03:38.709Z,6.53
2023-11-28T17:06:09.973Z,5.50
2023-11-28T17:08:40.162Z,5.50
2023-11-28T17:11:08.414Z,5.37
2023-11-28T17:13:36.757Z,5.57
2023-11-28T17:16:08.269Z,5.43
2023-11-28T17:18:36.996Z,5.37
2023-11-28T17:21:05.367Z,5.47
2023-11-28T17:23:35.125Z,5.20
2023-11-28T17:26:03.599Z,5.83
2023-11-28T17:28:32.019Z,5.77
2023-11-28T17:31:00.298Z,5.67
2023-11-28T17:33:29.978Z,6.37
2023-11-28T17:35:58.180Z,7.43
2023-11-28T17:38:27.030Z,7.57
2023-11-28T17:40:55.196Z,7.40
2023-11-28T17:43:23.468Z,7.10
2023-11-28T17:45:51.776Z,6.93
2023-11-28T17:48:20.299Z,7.63
2023-11-28T17:50:49.922Z,7.70
2023-11-28T17:53:18.233Z,6.37
2023-11-28T17:55:47.739Z,7.43
2023-11-28T17:58:16.009Z,7.20
2023-11-28T18:00:44.523Z,14.43
2023-11-28T18:03:13.089Z,9.00
2023-11-28T18:05:41.253Z,9.63
2023-11-28T18:08:12.603Z,12.63
2023-11-28T18:10:40.899Z,12.00
2023-11-28T18:13:09.933Z,12.60
2023-11-28T18:15:38.229Z,10.10
2023-11-28T18:18:06.758Z,9.50
2023-11-28T18:20:37.380Z,8.70
2023-11-28T18:23:05.797Z,11.50
2023-11-28T18:25:35.297Z,11.63
2023-11-28T18:28:04.025Z,10.13
2023-11-28T18:30:32.315Z,11.90
2023-11-28T18:33:00.705Z,11.93
2023-11-28T18:35:28.885Z,10.10
2023-11-28T18:37:57.654Z,9.70
2023-11-28T18:40:25.788Z,9.73
2023-11-28T18:42:55.965Z,9.33
2023-11-28T18:45:24.419Z,9.20
2023-11-28T18:47:52.885Z,8.53
2023-11-28T18:50:21.162Z,8.60
2023-11-28T18:52:49.719Z,8.73
2023-11-28T18:55:18.258Z,8.63
2023-11-28T18:57:46.643Z,7.90
2023-11-28T19:00:17.075Z,8.93
2023-11-28T19:02:46.685Z,9.23
2023-11-28T19:05:16.362Z,9.23
2023-11-28T19:07:46.114Z,8.77
2023-11-28T19:10:14.284Z,8.90
2023-11-28T19:12:42.584Z,9.40
2023-11-28T19:15:11.513Z,9.37
2023-11-28T19:17:42.812Z,9.63
2023-11-28T19:20:11.705Z,8.97
2023-11-28T19:22:40.282Z,9.90
2023-11-28T19:25:09.910Z,9.23
2023-11-28T19:27:38.176Z,8.77
2023-11-28T19:30:07.760Z,9.07
2023-11-28T19:32:36.341Z,8.37
2023-11-28T19:35:09.825Z,8.40
2023-11-28T19:37:38.790Z,8.77
2023-11-28T19:40:09.450Z,9.03
2023-11-28T19:42:37.721Z,10.03
2023-11-28T19:45:07.698Z,9.63
2023-11-28T19:47:35.985Z,9.00
2023-11-28T19:50:06.431Z,9.10
2023-11-28T19:52:34.843Z,10.00
2023-11-28T19:55:03.643Z,9.43
2023-11-28T19:57:31.936Z,9.03
2023-11-28T20:00:00.770Z,10.07
2023-11-28T20:02:29.059Z,10.00
2023-11-28T20:04:57.469Z,9.13
2023-11-28T20:07:27.142Z,8.80
2023-11-28T20:09:57.395Z,9.40
2023-11-28T20:12:25.987Z,9.20
2023-11-28T20:14:54.328Z,9.00
2023-11-28T20:17:22.507Z,9.60
2023-11-28T20:19:50.822Z,9.50
2023-11-28T20:22:21.356Z,10.40
2023-11-28T20:24:52.158Z,10.20
2023-11-28T20:27:20.671Z,10.57
2023-11-28T20:29:48.927Z,10.80
2023-11-28T20:32:17.121Z,10.53
2023-11-28T20:34:45.333Z,10.37
2023-11-28T20:37:19.101Z,10.53
2023-11-28T20:39:48.363Z,10.23
2023-11-28T20:42:18.032Z,9.93
2023-11-28T20:44:46.254Z,10.73
2023-11-28T20:47:13.690Z,11.03
2023-11-28T20:49:42.804Z,10.30
2023-11-28T20:52:11.028Z,10.60
2023-11-28T20:54:39.360Z,11.20
2023-11-28T20:57:07.810Z,11.07
2023-11-28T20:59:38.226Z,10.90
2023-11-28T21:02:07.867Z,10.47
2023-11-28T21:04:36.322Z,10.73
2023-11-28T21:07:05.024Z,10.10
2023-11-28T21:09:33.377Z,11.13
2023-11-28T21:12:00.605Z,10.60
2023-11-28T21:14:31.947Z,11.00
2023-11-28T21:17:01.966Z,10.60
2023-11-28T21:19:30.446Z,11.20
2023-11-28T21:21:58.929Z,11.73
2023-11-28T21:24:27.341Z,11.70
2023-11-28T21:26:56.265Z,10.03
2023-11-28T21:29:26.001Z,9.13
2023-11-28T21:31:54.641Z,9.37
2023-11-28T21:34:24.416Z,9.75
2023-11-28T21:36:52.747Z,8.87
2023-11-28T21:39:21.756Z,9.53
2023-11-28T21:41:52.384Z,10.03
2023-11-28T21:44:21.265Z,9.10
2023-11-28T21:46:51.643Z,8.57
2023-11-28T21:49:21.064Z,8.87
2023-11-28T21:51:51.352Z,8.83
2023-11-28T21:54:19.880Z,8.90
2023-11-28T21:56:47.195Z,9.03
2023-11-28T21:59:15.877Z,8.32
2023-11-28T22:01:44.219Z,8.10
2023-11-28T22:04:12.729Z,8.55
2023-11-28T22:06:41.261Z,8.82
2023-11-28T22:09:11.253Z,9.30
2023-11-28T22:11:41.348Z,14.07
2023-11-28T22:14:09.698Z,11.90
2023-11-28T22:16:40.055Z,10.47
2023-11-28T22:19:09.058Z,9.73
2023-11-28T22:21:39.400Z,9.23
2023-11-28T22:24:09.382Z,9.30
2023-11-28T22:26:43.212Z,9.43
2023-11-28T22:29:15.208Z,9.87
2023-11-28T22:31:43.929Z,9.23
2023-11-28T22:34:12.282Z,9.80
2023-11-28T22:36:40.546Z,9.70
2023-11-28T22:39:10.082Z,8.50
2023-11-28T22:41:38.463Z,9.00
2023-11-28T22:44:08.220Z,8.20
2023-11-28T22:46:36.672Z,8.63
2023-11-28T22:49:04.968Z,9.67
2023-11-28T22:51:34.797Z,9.17
2023-11-28T22:54:03.068Z,8.50
2023-11-28T22:56:32.153Z,8.13
2023-11-28T22:59:00.775Z,7.70
2023-11-28T23:01:30.742Z,7.57
2023-11-28T23:04:00.520Z,7.37
2023-11-28T23:06:29.608Z,8.07
2023-11-28T23:09:00.413Z,7.77
2023-11-28T23:11:29.129Z,7.90
2023-11-28T23:13:57.911Z,7.70
2023-11-28T23:16:26.398Z,7.67
2023-11-28T23:18:56.159Z,7.77
2023-11-28T23:21:26.665Z,7.75
2023-11-28T23:23:56.467Z,6.97
2023-11-28T23:26:25.545Z,7.13
2023-11-28T23:28:53.843Z,8.05
2023-11-28T23:31:24.431Z,8.48
2023-11-28T23:33:52.725Z,8.10
2023-11-28T23:36:22.533Z,7.90
2023-11-28T23:38:50.841Z,8.60
2023-11-28T23:41:19.424Z,8.48
2023-11-28T23:43:48.417Z,8.13
2023-11-28T23:46:16.817Z,8.57
2023-11-28T23:48:45.083Z,7.57
2023-11-28T23:51:15.519Z,8.20
2023-11-28T23:53:45.156Z,8.43
2023-11-28T23:56:13.431Z,8.20
2023-11-28T23:58:41.740Z,7.80
